sensor_id;sensor_type;location;lat;lon;timestamp;pressure;altitude;pressure_sealevel;temperature;humidity
28927;BME280;16038;47.692;9.400;2022-08-18T00:01:45;96436.28;;;17.25;100.00
28927;BME280;16038;47.692;9.400;2022-08-18T00:04:12;96431.88;;;17.55;100.00
28927;BME280;16038;47.692;9.400;2022-08-18T00:06:39;96434.53;;;17.62;100.00
28927;BME280;16038;47.692;9.400;2022-08-18T00:09:06;96433.41;;;17.60;100.00
28927;BME280;16038;47.692;9.400;2022-08-18T00:11:35;96438.75;;;17.47;100.00
28927;BME280;16038;47.692;9.400;2022-08-18T00:14:01;96438.00;;;17.43;100.00
28927;BME280;16038;47.692;9.400;2022-08-18T00:16:26;96431.38;;;17.36;100.00
28927;BME280;16038;47.692;9.400;2022-08-18T00:18:51;96444.44;;;17.36;100.00
28927;BME280;16038;47.692;9.400;2022-08-18T00:21:17;96440.50;;;17.33;100.00
28927;BME280;16038;47.692;9.400;2022-08-18T00:23:43;96428.91;;;17.15;100.00
28927;BME280;16038;47.692;9.400;2022-08-18T00:26:09;96426.44;;;16.59;100.00
28927;BME280;16038;47.692;9.400;2022-08-18T00:28:34;96427.13;;;16.32;100.00
28927;BME280;16038;47.692;9.400;2022-08-18T00:31:00;96416.81;;;16.36;100.00
28927;BME280;16038;47.692;9.400;2022-08-18T00:33:26;96410.47;;;16.39;100.00
28927;BME280;16038;47.692;9.400;2022-08-18T00:35:52;96416.59;;;16.54;100.00
28927;BME280;16038;47.692;9.400;2022-08-18T00:38:17;96417.84;;;16.50;100.00
28927;BME280;16038;47.692;9.400;2022-08-18T00:40:46;96416.34;;;16.41;100.00
28927;BME280;16038;47.692;9.400;2022-08-18T00:43:42;96404.03;;;16.15;100.00
28927;BME280;16038;47.692;9.400;2022-08-18T00:46:17;96396.28;;;15.99;100.00
28927;BME280;16038;47.692;9.400;2022-08-18T00:48:44;96385.53;;;15.63;100.00
28927;BME280;16038;47.692;9.400;2022-08-18T00:51:18;96381.03;;;15.32;100.00
28927;BME280;16038;47.692;9.400;2022-08-18T00:53:48;96380.34;;;15.20;100.00
28927;BME280;16038;47.692;9.400;2022-08-18T00:56:25;96386.97;;;15.30;100.00
28927;BME280;16038;47.692;9.400;2022-08-18T00:58:56;96380.66;;;15.33;100.00
28927;BME280;16038;47.692;9.400;2022-08-18T01:01:26;96394.84;;;15.32;100.00
28927;BME280;16038;47.692;9.400;2022-08-18T01:03:59;96399.56;;;15.35;100.00
28927;BME280;16038;47.692;9.400;2022-08-18T01:06:32;96385.75;;;15.35;100.00
28927;BME280;16038;47.692;9.400;2022-08-18T01:09:00;96366.47;;;15.31;100.00
28927;BME280;16038;47.692;9.400;2022-08-18T01:11:27;96370.41;;;15.30;100.00
28927;BME280;16038;47.692;9.400;2022-08-18T01:13:52;96371.88;;;15.45;100.00
28927;BME280;16038;47.692;9.400;2022-08-18T01:16:20;96354.69;;;15.72;100.00
28927;BME280;16038;47.692;9.400;2022-08-18T01:19:05;96357.28;;;15.94;100.00
28927;BME280;16038;47.692;9.400;2022-08-18T01:21:56;96365.56;;;15.94;100.00
28927;BME280;16038;47.692;9.400;2022-08-18T01:24:28;96366.31;;;15.53;100.00
28927;BME280;16038;47.692;9.400;2022-08-18T01:27:16;96360.31;;;15.13;100.00
28927;BME280;16038;47.692;9.400;2022-08-18T01:29:47;96369.75;;;15.12;100.00
28927;BME280;16038;47.692;9.400;2022-08-18T01:32:18;96367.44;;;15.06;100.00
28927;BME280;16038;47.692;9.400;2022-08-18T01:34:48;96369.41;;;15.06;100.00
28927;BME280;16038;47.692;9.400;2022-08-18T01:37:20;96362.59;;;15.21;100.00
28927;BME280;16038;47.692;9.400;2022-08-18T01:39:46;96363.69;;;15.35;100.00
28927;BME280;16038;47.692;9.400;2022-08-18T01:42:13;96348.97;;;15.52;100.00
28927;BME280;16038;47.692;9.400;2022-08-18T01:44:42;96359.16;;;15.59;100.00
28927;BME280;16038;47.692;9.400;2022-08-18T01:47:09;96353.22;;;15.60;100.00
28927;BME280;16038;47.692;9.400;2022-08-18T01:49:36;96348.38;;;15.75;100.00
28927;BME280;16038;47.692;9.400;2022-08-18T01:52:01;96351.91;;;15.79;100.00
28927;BME280;16038;47.692;9.400;2022-08-18T01:54:28;96343.19;;;15.81;100.00
28927;BME280;16038;47.692;9.400;2022-08-18T01:56:54;96330.09;;;15.89;100.00
28927;BME280;16038;47.692;9.400;2022-08-18T01:59:20;96332.34;;;16.01;100.00
28927;BME280;16038;47.692;9.400;2022-08-18T02:01:46;96324.88;;;15.98;100.00
28927;BME280;16038;47.692;9.400;2022-08-18T02:04:13;96322.06;;;16.01;100.00
28927;BME280;16038;47.692;9.400;2022-08-18T02:06:40;96322.44;;;16.03;100.00
28927;BME280;16038;47.692;9.400;2022-08-18T02:09:06;96326.34;;;16.06;100.00
28927;BME280;16038;47.692;9.400;2022-08-18T02:11:31;96320.91;;;15.99;100.00
28927;BME280;16038;47.692;9.400;2022-08-18T02:13:57;96322.00;;;16.09;100.00
28927;BME280;16038;47.692;9.400;2022-08-18T02:16:22;96324.69;;;15.33;100.00
28927;BME280;16038;47.692;9.400;2022-08-18T02:18:48;96323.75;;;14.98;100.00
28927;BME280;16038;47.692;9.400;2022-08-18T02:21:16;96318.94;;;15.13;100.00
28927;BME280;16038;47.692;9.400;2022-08-18T02:23:43;96317.16;;;15.37;100.00
28927;BME280;16038;47.692;9.400;2022-08-18T02:26:11;96328.78;;;15.59;100.00
28927;BME280;16038;47.692;9.400;2022-08-18T02:28:37;96320.13;;;15.57;100.00
28927;BME280;16038;47.692;9.400;2022-08-18T02:31:16;96311.72;;;15.26;100.00
28927;BME280;16038;47.692;9.400;2022-08-18T02:33:42;96297.53;;;15.27;100.00
28927;BME280;16038;47.692;9.400;2022-08-18T02:36:08;96298.13;;;15.49;100.00
28927;BME280;16038;47.692;9.400;2022-08-18T02:38:33;96292.22;;;15.47;100.00
28927;BME280;16038;47.692;9.400;2022-08-18T02:41:01;96278.41;;;15.06;100.00
28927;BME280;16038;47.692;9.400;2022-08-18T02:43:28;96279.75;;;14.83;100.00
28927;BME280;16038;47.692;9.400;2022-08-18T02:45:55;96270.38;;;14.74;100.00
28927;BME280;16038;47.692;9.400;2022-08-18T02:48:21;96262.78;;;14.85;100.00
28927;BME280;16038;47.692;9.400;2022-08-18T02:51:07;96261.88;;;15.02;100.00
28927;BME280;16038;47.692;9.400;2022-08-18T02:53:34;96265.41;;;15.03;100.00
28927;BME280;16038;47.692;9.400;2022-08-18T02:58:44;96271.31;;;15.46;100.00
28927;BME280;16038;47.692;9.400;2022-08-18T03:01:10;96273.19;;;15.57;100.00
28927;BME280;16038;47.692;9.400;2022-08-18T03:03:35;96278.22;;;15.69;100.00
28927;BME280;16038;47.692;9.400;2022-08-18T03:06:01;96266.84;;;15.63;100.00
28927;BME280;16038;47.692;9.400;2022-08-18T03:08:27;96261.03;;;15.54;100.00
28927;BME280;16038;47.692;9.400;2022-08-18T03:10:53;96260.22;;;15.54;100.00
28927;BME280;16038;47.692;9.400;2022-08-18T03:13:18;96257.69;;;15.70;100.00
28927;BME280;16038;47.692;9.400;2022-08-18T03:15:45;96254.72;;;15.50;100.00
28927;BME280;16038;47.692;9.400;2022-08-18T03:18:11;96248.41;;;15.12;100.00
28927;BME280;16038;47.692;9.400;2022-08-18T03:20:37;96255.16;;;15.03;100.00
28927;BME280;16038;47.692;9.400;2022-08-18T03:23:03;96251.88;;;14.70;100.00
28927;BME280;16038;47.692;9.400;2022-08-18T03:25:29;96247.19;;;14.60;100.00
28927;BME280;16038;47.692;9.400;2022-08-18T03:27:55;96237.69;;;14.72;100.00
28927;BME280;16038;47.692;9.400;2022-08-18T03:30:20;96234.78;;;14.90;100.00
28927;BME280;16038;47.692;9.400;2022-08-18T03:32:50;96235.88;;;15.00;100.00
28927;BME280;16038;47.692;9.400;2022-08-18T03:35:16;96231.72;;;15.26;100.00
28927;BME280;16038;47.692;9.400;2022-08-18T03:37:42;96244.66;;;14.91;100.00
28927;BME280;16038;47.692;9.400;2022-08-18T03:40:08;96247.53;;;14.73;100.00
28927;BME280;16038;47.692;9.400;2022-08-18T03:42:35;96251.38;;;14.86;100.00
28927;BME280;16038;47.692;9.400;2022-08-18T03:45:01;96248.47;;;15.04;100.00
28927;BME280;16038;47.692;9.400;2022-08-18T03:47:26;96249.28;;;15.01;100.00
28927;BME280;16038;47.692;9.400;2022-08-18T03:49:52;96245.69;;;15.04;100.00
28927;BME280;16038;47.692;9.400;2022-08-18T03:52:18;96238.41;;;15.25;100.00
28927;BME280;16038;47.692;9.400;2022-08-18T03:54:44;96231.72;;;15.26;100.00
28927;BME280;16038;47.692;9.400;2022-08-18T03:57:11;96238.25;;;15.43;100.00
28927;BME280;16038;47.692;9.400;2022-08-18T03:59:37;96255.09;;;15.56;100.00
28927;BME280;16038;47.692;9.400;2022-08-18T04:02:06;96264.00;;;15.71;100.00
28927;BME280;16038;47.692;9.400;2022-08-18T04:04:32;96276.50;;;15.82;100.00
28927;BME280;16038;47.692;9.400;2022-08-18T04:07:02;96274.22;;;15.77;100.00
28927;BME280;16038;47.692;9.400;2022-08-18T04:09:30;96275.53;;;15.62;100.00
28927;BME280;16038;47.692;9.400;2022-08-18T04:11:56;96278.03;;;15.49;100.00
28927;BME280;16038;47.692;9.400;2022-08-18T04:14:24;96279.34;;;15.34;100.00
28927;BME280;16038;47.692;9.400;2022-08-18T04:16:50;96271.06;;;15.34;100.00
28927;BME280;16038;47.692;9.400;2022-08-18T04:19:17;96280.03;;;15.45;100.00
28927;BME280;16038;47.692;9.400;2022-08-18T04:21:43;96281.47;;;15.57;100.00
28927;BME280;16038;47.692;9.400;2022-08-18T04:24:11;96277.03;;;15.70;100.00
28927;BME280;16038;47.692;9.400;2022-08-18T04:26:40;96285.56;;;15.86;100.00
28927;BME280;16038;47.692;9.400;2022-08-18T04:29:07;96280.69;;;15.98;100.00
28927;BME280;16038;47.692;9.400;2022-08-18T04:31:33;96284.25;;;15.95;100.00
28927;BME280;16038;47.692;9.400;2022-08-18T04:34:00;96283.84;;;15.96;100.00
28927;BME280;16038;47.692;9.400;2022-08-18T04:36:27;96286.41;;;16.14;100.00
28927;BME280;16038;47.692;9.400;2022-08-18T04:38:53;96282.72;;;16.24;100.00
28927;BME280;16038;47.692;9.400;2022-08-18T04:41:19;96284.94;;;16.37;100.00
28927;BME280;16038;47.692;9.400;2022-08-18T04:43:56;96278.38;;;16.54;100.00
28927;BME280;16038;47.692;9.400;2022-08-18T04:46:22;96281.84;;;16.62;100.00
28927;BME280;16038;47.692;9.400;2022-08-18T04:48:48;96269.84;;;16.72;100.00
28927;BME280;16038;47.692;9.400;2022-08-18T04:51:16;96274.13;;;16.77;100.00
28927;BME280;16038;47.692;9.400;2022-08-18T04:53:43;96279.16;;;16.86;100.00
28927;BME280;16038;47.692;9.400;2022-08-18T04:56:22;96275.97;;;16.87;100.00
28927;BME280;16038;47.692;9.400;2022-08-18T04:58:56;96277.53;;;16.88;100.00
28927;BME280;16038;47.692;9.400;2022-08-18T05:01:26;96280.25;;;16.92;100.00
28927;BME280;16038;47.692;9.400;2022-08-18T05:03:53;96279.19;;;16.82;100.00
28927;BME280;16038;47.692;9.400;2022-08-18T05:06:20;96268.19;;;16.78;100.00
28927;BME280;16038;47.692;9.400;2022-08-18T05:08:50;96262.50;;;16.62;100.00
28927;BME280;16038;47.692;9.400;2022-08-18T05:11:17;96259.50;;;16.18;100.00
28927;BME280;16038;47.692;9.400;2022-08-18T05:13:43;96246.22;;;15.75;100.00
28927;BME280;16038;47.692;9.400;2022-08-18T05:16:08;96239.81;;;15.44;100.00
28927;BME280;16038;47.692;9.400;2022-08-18T05:18:35;96229.69;;;15.30;100.00
28927;BME280;16038;47.692;9.400;2022-08-18T05:21:06;96233.88;;;15.07;100.00
28927;BME280;16038;47.692;9.400;2022-08-18T05:23:35;96225.59;;;15.07;100.00
28927;BME280;16038;47.692;9.400;2022-08-18T05:26:02;96205.84;;;15.13;100.00
28927;BME280;16038;47.692;9.400;2022-08-18T05:28:31;96199.16;;;15.10;100.00
28927;BME280;16038;47.692;9.400;2022-08-18T05:31:14;96181.81;;;15.13;100.00
28927;BME280;16038;47.692;9.400;2022-08-18T05:33:40;96175.06;;;15.14;100.00
28927;BME280;16038;47.692;9.400;2022-08-18T05:41:36;96122.00;;;15.03;100.00
28927;BME280;16038;47.692;9.400;2022-08-18T05:44:03;96178.38;;;15.02;100.00
28927;BME280;16038;47.692;9.400;2022-08-18T05:46:42;96255.31;;;15.34;100.00
28927;BME280;16038;47.692;9.400;2022-08-18T05:49:10;96278.22;;;15.69;100.00
28927;BME280;16038;47.692;9.400;2022-08-18T05:51:41;96281.09;;;15.96;100.00
28927;BME280;16038;47.692;9.400;2022-08-18T05:54:09;96288.56;;;15.99;100.00
28927;BME280;16038;47.692;9.400;2022-08-18T05:56:57;96298.28;;;16.11;100.00
28927;BME280;16038;47.692;9.400;2022-08-18T05:59:25;96281.78;;;16.04;100.00
28927;BME280;16038;47.692;9.400;2022-08-18T06:01:57;96275.19;;;15.94;100.00
28927;BME280;16038;47.692;9.400;2022-08-18T06:04:46;96295.66;;;16.31;100.00
28927;BME280;16038;47.692;9.400;2022-08-18T06:07:15;96299.22;;;16.62;100.00
28927;BME280;16038;47.692;9.400;2022-08-18T06:09:50;96303.72;;;16.80;100.00
28927;BME280;16038;47.692;9.400;2022-08-18T06:12:35;96311.09;;;16.90;100.00
28927;BME280;16038;47.692;9.400;2022-08-18T06:20:18;96339.19;;;17.63;100.00
28927;BME280;16038;47.692;9.400;2022-08-18T06:25:25;96336.78;;;17.89;100.00
28927;BME280;16038;47.692;9.400;2022-08-18T06:27:59;96340.94;;;18.01;100.00
28927;BME280;16038;47.692;9.400;2022-08-18T06:36:04;96320.09;;;18.52;100.00
28927;BME280;16038;47.692;9.400;2022-08-18T06:38:57;96314.31;;;18.83;100.00
28927;BME280;16038;47.692;9.400;2022-08-18T06:41:40;96321.81;;;19.19;100.00
28927;BME280;16038;47.692;9.400;2022-08-18T06:44:18;96328.00;;;19.43;100.00
28927;BME280;16038;47.692;9.400;2022-08-18T06:49:38;96340.19;;;19.62;100.00
28927;BME280;16038;47.692;9.400;2022-08-18T06:52:27;96337.53;;;19.92;100.00
28927;BME280;16038;47.692;9.400;2022-08-18T06:54:58;96338.91;;;20.13;100.00
28927;BME280;16038;47.692;9.400;2022-08-18T06:57:37;96333.53;;;19.43;100.00
28927;BME280;16038;47.692;9.400;2022-08-18T07:00:21;96329.25;;;19.55;100.00
28927;BME280;16038;47.692;9.400;2022-08-18T07:02:52;96324.59;;;19.85;100.00
28927;BME280;16038;47.692;9.400;2022-08-18T07:10:42;96323.66;;;18.53;100.00
28927;BME280;16038;47.692;9.400;2022-08-18T07:15:37;96303.88;;;19.24;100.00
28927;BME280;16038;47.692;9.400;2022-08-18T07:18:04;96315.38;;;20.59;100.00
28927;BME280;16038;47.692;9.400;2022-08-18T07:20:41;96315.88;;;21.22;100.00
28927;BME280;16038;47.692;9.400;2022-08-18T07:23:07;96312.09;;;22.46;100.00
28927;BME280;16038;47.692;9.400;2022-08-18T07:25:45;96311.41;;;24.32;96.50
28927;BME280;16038;47.692;9.400;2022-08-18T07:28:39;96322.03;;;25.41;82.99
28927;BME280;16038;47.692;9.400;2022-08-18T07:33:45;96315.31;;;26.35;74.17
28927;BME280;16038;47.692;9.400;2022-08-18T07:36:12;96319.13;;;24.84;80.63
28927;BME280;16038;47.692;9.400;2022-08-18T07:38:45;96324.53;;;23.58;88.29
28927;BME280;16038;47.692;9.400;2022-08-18T07:41:32;96326.78;;;24.00;87.21
28927;BME280;16038;47.692;9.400;2022-08-18T07:44:22;96325.72;;;24.16;86.23
28927;BME280;16038;47.692;9.400;2022-08-18T07:46:57;96332.25;;;24.31;85.00
28927;BME280;16038;47.692;9.400;2022-08-18T07:49:30;96337.06;;;24.03;85.47
28927;BME280;16038;47.692;9.400;2022-08-18T07:52:07;96336.44;;;23.90;85.86
28927;BME280;16038;47.692;9.400;2022-08-18T08:00:29;96338.69;;;23.63;86.99
28927;BME280;16038;47.692;9.400;2022-08-18T08:05:57;96341.47;;;23.54;87.98
28927;BME280;16038;47.692;9.400;2022-08-18T08:08:34;96353.78;;;23.75;84.09
28927;BME280;16038;47.692;9.400;2022-08-18T08:16:42;96320.69;;;22.61;90.33
28927;BME280;16038;47.692;9.400;2022-08-18T08:19:24;96328.50;;;22.44;94.94
28927;BME280;16038;47.692;9.400;2022-08-18T08:22:03;96328.25;;;23.05;90.54
28927;BME280;16038;47.692;9.400;2022-08-18T08:30:07;96287.22;;;24.81;79.05
28927;BME280;16038;47.692;9.400;2022-08-18T08:32:36;96291.09;;;25.35;75.25
28927;BME280;16038;47.692;9.400;2022-08-18T08:35:17;96276.69;;;24.48;77.86
28927;BME280;16038;47.692;9.400;2022-08-18T08:37:48;96275.09;;;25.17;76.02
28927;BME280;16038;47.692;9.400;2022-08-18T08:40:17;96275.88;;;25.18;75.48
28927;BME280;16038;47.692;9.400;2022-08-18T08:42:52;96287.19;;;25.33;75.51
28927;BME280;16038;47.692;9.400;2022-08-18T08:45:25;96283.72;;;23.79;85.13
28927;BME280;16038;47.692;9.400;2022-08-18T08:50:23;96315.53;;;23.54;85.93
28927;BME280;16038;47.692;9.400;2022-08-18T08:52:53;96336.75;;;23.92;83.90
28927;BME280;16038;47.692;9.400;2022-08-18T08:55:33;96347.00;;;24.32;79.93
28927;BME280;16038;47.692;9.400;2022-08-18T09:00:25;96346.47;;;23.78;82.47
28927;BME280;16038;47.692;9.400;2022-08-18T09:03:12;96346.56;;;24.24;82.25
28927;BME280;16038;47.692;9.400;2022-08-18T09:16:48;96332.50;;;25.89;71.32
28927;BME280;16038;47.692;9.400;2022-08-18T09:22:49;96335.06;;;26.26;69.46
28927;BME280;16038;47.692;9.400;2022-08-18T09:24:51;96335.75;;;26.36;67.41
28927;BME280;16038;47.692;9.400;2022-08-18T09:30:04;96334.66;;;27.02;64.69
28927;BME280;16038;47.692;9.400;2022-08-18T09:32:43;96323.66;;;27.69;61.50
28927;BME280;16038;47.692;9.400;2022-08-18T09:35:30;96332.03;;;28.46;58.27
28927;BME280;16038;47.692;9.400;2022-08-18T09:38:08;96335.69;;;29.04;54.38
28927;BME280;16038;47.692;9.400;2022-08-18T09:41:08;96328.53;;;27.03;59.31
28927;BME280;16038;47.692;9.400;2022-08-18T09:44:01;96328.69;;;26.01;62.44
28927;BME280;16038;47.692;9.400;2022-08-18T09:51:49;96276.25;;;26.61;62.96
28927;BME280;16038;47.692;9.400;2022-08-18T09:54:19;96280.38;;;26.51;61.62
28927;BME280;16038;47.692;9.400;2022-08-18T10:02:02;96266.13;;;26.40;62.25
28927;BME280;16038;47.692;9.400;2022-08-18T10:07:52;96251.91;;;26.13;65.74
28927;BME280;16038;47.692;9.400;2022-08-18T10:18:25;96242.81;;;25.31;67.77
28927;BME280;16038;47.692;9.400;2022-08-18T10:21:01;96232.44;;;24.89;69.61
28927;BME280;16038;47.692;9.400;2022-08-18T10:23:52;96239.41;;;24.94;71.27
28927;BME280;16038;47.692;9.400;2022-08-18T10:37:03;96225.56;;;25.24;68.43
28927;BME280;16038;47.692;9.400;2022-08-18T10:45:21;96235.06;;;25.17;68.22
28927;BME280;16038;47.692;9.400;2022-08-18T10:50:24;96218.63;;;25.10;68.30
28927;BME280;16038;47.692;9.400;2022-08-18T10:53:02;96215.31;;;24.87;70.86
28927;BME280;16038;47.692;9.400;2022-08-18T10:55:45;96224.22;;;25.10;70.79
28927;BME280;16038;47.692;9.400;2022-08-18T11:01:05;96183.22;;;24.64;69.22
28927;BME280;16038;47.692;9.400;2022-08-18T11:04:07;96182.09;;;24.71;69.60
28927;BME280;16038;47.692;9.400;2022-08-18T11:06:48;96173.59;;;24.89;66.94
28927;BME280;16038;47.692;9.400;2022-08-18T11:09:15;96161.41;;;24.68;68.46
28927;BME280;16038;47.692;9.400;2022-08-18T11:11:50;96147.28;;;24.96;69.06
28927;BME280;16038;47.692;9.400;2022-08-18T11:17:34;96163.78;;;25.18;66.42
28927;BME280;16038;47.692;9.400;2022-08-18T11:20:07;96159.53;;;25.23;65.80
28927;BME280;16038;47.692;9.400;2022-08-18T11:22:35;96154.53;;;25.51;65.32
28927;BME280;16038;47.692;9.400;2022-08-18T11:25:15;96155.28;;;25.36;65.43
28927;BME280;16038;47.692;9.400;2022-08-18T11:27:46;96158.72;;;25.31;65.14
28927;BME280;16038;47.692;9.400;2022-08-18T11:30:12;96165.31;;;25.19;66.82
28927;BME280;16038;47.692;9.400;2022-08-18T11:32:39;96167.72;;;24.87;67.10
28927;BME280;16038;47.692;9.400;2022-08-18T11:35:14;96154.75;;;24.14;68.63
28927;BME280;16038;47.692;9.400;2022-08-18T11:38:09;96162.63;;;24.34;68.05
28927;BME280;16038;47.692;9.400;2022-08-18T11:40:48;96156.34;;;24.48;67.63
28927;BME280;16038;47.692;9.400;2022-08-18T11:43:23;96159.63;;;24.47;68.55
28927;BME280;16038;47.692;9.400;2022-08-18T11:54:00;96152.94;;;24.87;67.67
28927;BME280;16038;47.692;9.400;2022-08-18T11:56:29;96156.97;;;24.86;67.88
28927;BME280;16038;47.692;9.400;2022-08-18T12:07:16;96133.09;;;25.63;64.87
28927;BME280;16038;47.692;9.400;2022-08-18T12:09:46;96129.13;;;25.54;64.23
28927;BME280;16038;47.692;9.400;2022-08-18T12:17:20;96130.09;;;24.79;66.92
28927;BME280;16038;47.692;9.400;2022-08-18T12:19:46;96137.34;;;24.52;68.80
28927;BME280;16038;47.692;9.400;2022-08-18T12:22:17;96139.38;;;24.61;68.42
28927;BME280;16038;47.692;9.400;2022-08-18T12:24:43;96148.72;;;24.58;69.16
28927;BME280;16038;47.692;9.400;2022-08-18T12:27:12;96137.06;;;24.84;68.96
28927;BME280;16038;47.692;9.400;2022-08-18T12:29:39;96144.47;;;24.96;67.64
28927;BME280;16038;47.692;9.400;2022-08-18T12:32:05;96135.88;;;24.75;67.89
28927;BME280;16038;47.692;9.400;2022-08-18T12:34:31;96136.78;;;24.82;67.58
28927;BME280;16038;47.692;9.400;2022-08-18T12:36:58;96117.41;;;24.26;70.23
28927;BME280;16038;47.692;9.400;2022-08-18T12:39:27;96113.75;;;24.77;68.46
28927;BME280;16038;47.692;9.400;2022-08-18T12:41:53;96114.88;;;25.19;67.03
28927;BME280;16038;47.692;9.400;2022-08-18T12:44:19;96112.75;;;25.14;66.11
28927;BME280;16038;47.692;9.400;2022-08-18T12:46:45;96111.91;;;25.47;63.50
28927;BME280;16038;47.692;9.400;2022-08-18T12:49:16;96119.34;;;24.87;65.38
28927;BME280;16038;47.692;9.400;2022-08-18T12:51:43;96116.66;;;24.59;66.12
28927;BME280;16038;47.692;9.400;2022-08-18T12:54:09;96102.84;;;24.55;68.10
28927;BME280;16038;47.692;9.400;2022-08-18T12:56:35;96098.81;;;24.56;68.11
28927;BME280;16038;47.692;9.400;2022-08-18T12:59:03;96098.56;;;24.69;66.39
28927;BME280;16038;47.692;9.400;2022-08-18T13:01:29;96091.94;;;25.06;66.16
28927;BME280;16038;47.692;9.400;2022-08-18T13:03:55;96081.88;;;25.23;65.27
28927;BME280;16038;47.692;9.400;2022-08-18T13:06:22;96076.44;;;25.73;63.87
28927;BME280;16038;47.692;9.400;2022-08-18T13:08:51;96088.94;;;26.02;61.60
28927;BME280;16038;47.692;9.400;2022-08-18T13:11:18;96096.31;;;25.31;62.96
28927;BME280;16038;47.692;9.400;2022-08-18T13:13:44;96107.16;;;24.90;65.51
28927;BME280;16038;47.692;9.400;2022-08-18T13:16:10;96105.84;;;24.76;66.67
28927;BME280;16038;47.692;9.400;2022-08-18T13:18:37;96099.31;;;24.46;68.91
28927;BME280;16038;47.692;9.400;2022-08-18T13:21:08;96112.50;;;24.12;69.50
28927;BME280;16038;47.692;9.400;2022-08-18T13:23:34;96099.97;;;23.79;71.50
28927;BME280;16038;47.692;9.400;2022-08-18T13:26:01;96095.81;;;23.38;73.17
28927;BME280;16038;47.692;9.400;2022-08-18T13:28:30;96094.72;;;23.26;74.18
28927;BME280;16038;47.692;9.400;2022-08-18T13:30:57;96095.53;;;23.26;75.39
28927;BME280;16038;47.692;9.400;2022-08-18T13:33:22;96100.97;;;23.39;74.66
28927;BME280;16038;47.692;9.400;2022-08-18T13:35:49;96091.63;;;23.33;76.01
28927;BME280;16038;47.692;9.400;2022-08-18T13:38:17;96093.66;;;23.42;76.68
28927;BME280;16038;47.692;9.400;2022-08-18T13:40:47;96102.34;;;23.35;76.59
28927;BME280;16038;47.692;9.400;2022-08-18T13:43:15;96095.84;;;23.19;76.84
28927;BME280;16038;47.692;9.400;2022-08-18T13:45:40;96096.56;;;23.01;78.04
28927;BME280;16038;47.692;9.400;2022-08-18T13:48:09;96098.72;;;22.88;78.30
28927;BME280;16038;47.692;9.400;2022-08-18T13:50:35;96093.16;;;23.06;78.35
28927;BME280;16038;47.692;9.400;2022-08-18T13:53:03;96098.31;;;23.17;78.18
28927;BME280;16038;47.692;9.400;2022-08-18T13:55:28;96093.81;;;23.20;76.91
28927;BME280;16038;47.692;9.400;2022-08-18T13:57:54;96092.06;;;23.04;77.21
28927;BME280;16038;47.692;9.400;2022-08-18T14:00:22;96102.34;;;23.07;77.90
28927;BME280;16038;47.692;9.400;2022-08-18T14:02:49;96104.53;;;23.12;79.16
28927;BME280;16038;47.692;9.400;2022-08-18T14:05:20;96107.31;;;23.12;79.19
28927;BME280;16038;47.692;9.400;2022-08-18T14:07:46;96095.81;;;23.10;80.04
28927;BME280;16038;47.692;9.400;2022-08-18T14:10:12;96101.66;;;22.94;80.38
28927;BME280;16038;47.692;9.400;2022-08-18T14:12:39;96102.63;;;23.00;80.65
28927;BME280;16038;47.692;9.400;2022-08-18T14:15:08;96104.84;;;23.23;78.92
28927;BME280;16038;47.692;9.400;2022-08-18T14:17:35;96114.75;;;23.06;79.51
28927;BME280;16038;47.692;9.400;2022-08-18T14:20:01;96105.75;;;23.20;78.46
28927;BME280;16038;47.692;9.400;2022-08-18T14:22:45;96119.09;;;23.25;78.29
28927;BME280;16038;47.692;9.400;2022-08-18T14:25:29;96125.31;;;23.20;78.12
28927;BME280;16038;47.692;9.400;2022-08-18T14:28:14;96129.81;;;23.08;78.42
28927;BME280;16038;47.692;9.400;2022-08-18T14:30:43;96111.19;;;23.05;78.77
28927;BME280;16038;47.692;9.400;2022-08-18T14:33:09;96114.41;;;23.04;79.27
28927;BME280;16038;47.692;9.400;2022-08-18T14:35:35;96110.06;;;23.03;78.89
28927;BME280;16038;47.692;9.400;2022-08-18T14:38:02;96112.06;;;22.93;80.52
28927;BME280;16038;47.692;9.400;2022-08-18T14:40:30;96107.25;;;22.84;81.80
28927;BME280;16038;47.692;9.400;2022-08-18T14:42:56;96117.16;;;22.76;82.26
28927;BME280;16038;47.692;9.400;2022-08-18T14:45:24;96112.78;;;22.66;85.28
28927;BME280;16038;47.692;9.400;2022-08-18T14:47:50;96109.97;;;22.57;86.38
28927;BME280;16038;47.692;9.400;2022-08-18T14:50:21;96109.47;;;22.49;93.74
28927;BME280;16038;47.692;9.400;2022-08-18T14:52:47;96105.59;;;22.46;96.81
28927;BME280;16038;47.692;9.400;2022-08-18T14:55:14;96111.00;;;22.41;93.93
28927;BME280;16038;47.692;9.400;2022-08-18T14:57:40;96113.50;;;22.39;100.00
28927;BME280;16038;47.692;9.400;2022-08-18T15:00:08;96109.09;;;22.28;97.37
28927;BME280;16038;47.692;9.400;2022-08-18T15:02:36;96117.72;;;22.21;100.00
28927;BME280;16038;47.692;9.400;2022-08-18T15:05:03;96118.78;;;22.14;100.00
28927;BME280;16038;47.692;9.400;2022-08-18T15:07:29;96120.78;;;22.14;100.00
28927;BME280;16038;47.692;9.400;2022-08-18T15:09:55;96114.25;;;22.08;100.00
28927;BME280;16038;47.692;9.400;2022-08-18T15:12:20;96118.59;;;21.77;100.00
28927;BME280;16038;47.692;9.400;2022-08-18T15:14:48;96120.28;;;21.53;100.00
28927;BME280;16038;47.692;9.400;2022-08-18T15:17:14;96119.69;;;21.58;100.00
28927;BME280;16038;47.692;9.400;2022-08-18T15:19:40;96125.97;;;21.71;100.00
28927;BME280;16038;47.692;9.400;2022-08-18T15:22:08;96128.56;;;21.88;100.00
28927;BME280;16038;47.692;9.400;2022-08-18T15:24:52;96121.19;;;22.03;100.00
28927;BME280;16038;47.692;9.400;2022-08-18T15:27:36;96125.09;;;22.06;100.00
28927;BME280;16038;47.692;9.400;2022-08-18T15:30:10;96125.03;;;21.96;100.00
28927;BME280;16038;47.692;9.400;2022-08-18T15:32:36;96121.47;;;21.96;100.00
28927;BME280;16038;47.692;9.400;2022-08-18T15:35:03;96134.78;;;21.92;100.00
28927;BME280;16038;47.692;9.400;2022-08-18T15:37:33;96128.69;;;21.84;100.00